Thunder radar more information blitzortung!


Radar de pluja more information rain snow radar


Visita la nostra xarxa de llocs de meteo:

Template documentation
and downloads

And another site



No particular awareness of the weather is required.    There are no Weather-warnings

Pagina Historial Weather Underground text

Diari Resum May 14, 2016 Unitats:  Mètric    Imperial   Tant
« Previous Dia
SegĂźent Dia »
Diari Setmana Mensual Anual Personalitzada
  Maxima: Minima: Media:
Temperatura: -17.8 °C -11.6 °C -7.6 °C
Punt de rosada: -17.8 °C -14.3 °C -12.3 °C
Humitat: Humidity % 35 % 58 %
Wind Speed: 0 km/h 0 km/h 11.4 km/h
RĂ fegues de vent: 0 km/h - -
Vent:- - ESE
Pression baro: 0 hPa 34198.6 hPa -
Precipitacions: 0 mm    
Historical Graphs
 
 
Dades de taula per May 14, 2016
Temps Temperatura Punt de rosada Pression baro Vent Wind Speed RĂ fegues de vent Humitat Rainfall Rate (Hourly)
-17.8 °C -17.8 °C 0 hPa Calm     Humidity % 0 mm
00:00 -11.2 °C -13.6 °C 34222.3 hPa Calm     75 % 0 mm
00:01 -9.7 °C -12.1 °C 34198.6 hPa Calm     75 % 0 mm
00:06 -9.7 °C -12.2 °C 34198.6 hPa WSW 3.1 km/h   75 % 0 mm
00:10 -11.2 °C -13.7 °C 34222.3 hPa NW 2.6 km/h 5.1 km/h 74 % 0 mm
00:20 -11.3 °C -13.8 °C 34222.3 hPa NNW 2.6 km/h 5.1 km/h 74 % 0 mm
00:30 -11.3 °C -13.8 °C 34222.3 hPa West 2.6 km/h 7.7 km/h 74 % 0 mm
00:40 -11.3 °C -13.9 °C 34222.3 hPa North 2.6 km/h 7.7 km/h 73 % 0 mm
01:00 -11.3 °C -14 °C 34222.3 hPa Calm   5.1 km/h 72 % 0 mm
01:10 -11.3 °C -14.1 °C 34222.3 hPa WNW 2.6 km/h 2.6 km/h 72 % 0 mm
01:20 -11.5 °C -14.2 °C 34222.3 hPa Calm   5.1 km/h 72 % 0 mm
01:30 -11.6 °C -14.3 °C 34256.2 hPa Calm   5.1 km/h 72 % 0 mm
01:40 -11.6 °C -14.3 °C 34256.2 hPa WSW 2.6 km/h 5.1 km/h 72 % 0 mm
01:50 -11.6 °C -14.3 °C 34256.2 hPa SSE 2.6 km/h 5.1 km/h 72 % 0 mm
02:00 -11.6 °C -14.3 °C 34256.2 hPa Calm   2.6 km/h 72 % 0 mm
02:10 -11.6 °C -14.3 °C 34256.2 hPa East 5.1 km/h 5.1 km/h 72 % 0 mm
02:20 -11.4 °C -14.1 °C 34256.2 hPa ENE 2.6 km/h 7.7 km/h 72 % 0 mm
02:30 -11.3 °C -14 °C 34256.2 hPa NE 2.6 km/h 5.1 km/h 72 % 0 mm
02:40 -11.1 °C -13.9 °C 34256.2 hPa North 2.6 km/h 5.1 km/h 71 % 0 mm
02:50 -10.8 °C -13.7 °C 34256.2 hPa NE 2.6 km/h 7.7 km/h 70 % 0 mm
03:00 -10.6 °C -13.6 °C 34256.2 hPa NE 5.1 km/h 7.7 km/h 70 % 0 mm
03:10 -10.3 °C -13.4 °C 34256.2 hPa NNE 2.6 km/h 7.7 km/h 69 % 0 mm
03:20 -10.2 °C -13.4 °C 34256.2 hPa North 2.6 km/h 7.7 km/h 68 % 0 mm
03:30 -10.1 °C -13.3 °C 34256.2 hPa NNE 7.7 km/h 7.7 km/h 68 % 0 mm
03:40 -10.1 °C -13.4 °C 34256.2 hPa NE 7.7 km/h 12.9 km/h 67 % 0 mm
03:50 -9.9 °C -13.2 °C 34256.2 hPa NE 5.1 km/h 10.3 km/h 67 % 0 mm
04:00 -9.6 °C -13.1 °C 34256.2 hPa NE 7.7 km/h 10.3 km/h 66 % 0 mm
04:10 -9.6 °C -13.1 °C 34256.2 hPa ENE 5.1 km/h 10.3 km/h 66 % 0 mm
04:20 -9.2 °C -12.9 °C 34256.2 hPa NE 2.6 km/h 7.7 km/h 65 % 0 mm
04:30 -9.2 °C -12.9 °C 34293.4 hPa NE 7.7 km/h 15.6 km/h 65 % 0 mm
04:40 -8.9 °C -12.6 °C 34256.2 hPa NE 5.1 km/h 12.9 km/h 65 % 0 mm
04:50 -8.7 °C -12.5 °C 34256.2 hPa NNE 5.1 km/h 12.9 km/h 64 % 0 mm
05:00 -8.4 °C -12.3 °C 34256.2 hPa NE 5.1 km/h 12.9 km/h 64 % 0 mm
10:00 -8.5 °C -12.3 °C 34256.2 hPa ENE 15 km/h 15 km/h 64 % 0 mm
10:05 -8.4 °C -12.4 °C 34256.2 hPa ENE 14.5 km/h 14.5 km/h 63 % 0 mm
10:10 -8.4 °C -12.4 °C 34256.2 hPa NE 15 km/h 15 km/h 63 % 0 mm
10:15 -8.5 °C -12.4 °C 34256.2 hPa NNE 14 km/h 14 km/h 63 % 0 mm
10:20 -8.4 °C -12.3 °C 34256.2 hPa NE 11.9 km/h 11.9 km/h 63 % 0 mm
10:25 -8.3 °C -12.5 °C 34256.2 hPa NNE 15.3 km/h 15.3 km/h 61 % 0 mm
10:30 -8.3 °C -12.5 °C 34256.2 hPa NNE 15 km/h 15 km/h 61 % 0 mm
10:35 -8.2 °C -12.4 °C 34256.2 hPa ENE 15 km/h 15 km/h 61 % 0 mm
10:40 -8 °C -12.2 °C 34256.2 hPa ENE 15 km/h 15 km/h 61 % 0 mm
10:45 -8 °C -12.2 °C 34256.2 hPa ENE 11.9 km/h 12.2 km/h 61 % 0 mm
10:50 -7.9 °C -12.3 °C 34256.2 hPa NNE 11.9 km/h 11.9 km/h 60 % 0 mm
10:55 -7.8 °C -12.2 °C 34256.2 hPa NNE 9 km/h 11.1 km/h 60 % 0 mm
11:00 -7.5 °C -11.9 °C 34256.2 hPa NNE 9 km/h 9 km/h 60 % 0 mm
11:05 -7.3 °C -11.9 °C 34256.2 hPa ENE 16.6 km/h 16.6 km/h 59 % 0 mm
11:10 -7.5 °C -12.2 °C 34256.2 hPa ENE 20.9 km/h 20.9 km/h 58 % 0 mm
11:15 -7.5 °C -12.1 °C 34256.2 hPa ENE 11.9 km/h 11.9 km/h 59 % 0 mm
11:20 -7.3 °C -11.8 °C 34256.2 hPa ENE 11.9 km/h 11.9 km/h 59 % 0 mm
11:25 -7.3 °C -12 °C 34256.2 hPa NE 15 km/h 15 km/h 58 % 0 mm
11:35 -6.9 °C -11.8 °C 34256.2 hPa NNE 15 km/h 15 km/h 57 % 0 mm
11:40 -6.9 °C -11.8 °C 34256.2 hPa NNE 9 km/h 9 km/h 57 % 0 mm
11:45 -6.9 °C -11.9 °C 34256.2 hPa ENE 15 km/h 15 km/h 56 % 0 mm
11:55 -6.9 °C -12.1 °C 34256.2 hPa ENE 17.9 km/h 17.9 km/h 55 % 0 mm
12:00 -6.8 °C -11.9 °C 34256.2 hPa ENE 15.6 km/h 15.6 km/h 55 % 0 mm
12:05 -6.6 °C -11.7 °C 34256.2 hPa NE 11.9 km/h 11.9 km/h 55 % 0 mm
12:10 -6.6 °C -11.9 °C 34256.2 hPa NNE 15 km/h 15 km/h 54 % 0 mm
12:15 -6.4 °C -11.6 °C 34256.2 hPa WNW 9 km/h 9 km/h 55 % 0 mm
12:20 -6.2 °C -11.4 °C 34256.2 hPa South 6 km/h 6 km/h 55 % 0 mm
12:25 -5.9 °C -11.4 °C 34293.4 hPa NNE 9 km/h 9 km/h 53 % 0 mm
12:30 -5.7 °C -11.4 °C 34293.4 hPa ESE 9.8 km/h 9.8 km/h 52 % 0 mm
12:35 -5.6 °C -11.3 °C 34293.4 hPa NE 7.6 km/h 7.6 km/h 52 % 0 mm
12:40 -5.6 °C -11.4 °C 34256.2 hPa WSW 9 km/h 9 km/h 51 % 0 mm
12:45 -5.6 °C -11.5 °C 34256.2 hPa ENE 9 km/h 9 km/h 51 % 0 mm
12:50 -5.5 °C -11.6 °C 34256.2 hPa SE 11.1 km/h 11.1 km/h 50 % 0 mm
12:55 -5.3 °C -11.6 °C 34256.2 hPa ENE 17.9 km/h 17.9 km/h 49 % 0 mm
13:00 -5.5 °C -11.7 °C 34256.2 hPa ENE 17.9 km/h 17.9 km/h 49 % 0 mm
13:05 -5.5 °C -11.6 °C 34256.2 hPa NNE 15.3 km/h 15.3 km/h 50 % 0 mm
13:10 -5.7 °C -11.9 °C 34256.2 hPa East 17.9 km/h 17.9 km/h 49 % 0 mm
13:15 -5.5 °C -11.7 °C 34256.2 hPa NNE 20.9 km/h 20.9 km/h 49 % 0 mm
13:20 -5.3 °C -11.6 °C 34256.2 hPa WNW 11.9 km/h 11.9 km/h 49 % 0 mm
13:25 -5 °C -11.4 °C 34256.2 hPa WNW 6 km/h 7.6 km/h 48 % 0 mm
13:30 -4.8 °C -11.5 °C 34256.2 hPa West 6 km/h 6 km/h 47 % 0 mm
13:35 -4.4 °C -11.3 °C 34256.2 hPa SSW 20.9 km/h 20.9 km/h 46 % 0 mm
13:40 -4.3 °C -11.6 °C 34256.2 hPa NNE 20.9 km/h 20.9 km/h 44 % 0 mm
13:45 -4.3 °C -11.3 °C 34256.2 hPa ENE 15 km/h 15 km/h 45 % 0 mm
13:50 -4.4 °C -11.4 °C 34256.2 hPa SSW 6 km/h 6 km/h 45 % 0 mm
13:55 -4.1 °C -11.6 °C 34256.2 hPa SW 17.9 km/h 17.9 km/h 43 % 0 mm
14:00 -4 °C -11.7 °C 34256.2 hPa ESE 6 km/h 6 km/h 42 % 0 mm
14:05 -4.1 °C -11.9 °C 34256.2 hPa WSW 32.8 km/h 32.8 km/h 41 % 0 mm
14:10 -4.1 °C -12 °C 34256.2 hPa West 25.4 km/h 25.4 km/h 41 % 0 mm
14:20 -3.7 °C -11.6 °C 34256.2 hPa SW 15.6 km/h 15.6 km/h 41 % 0 mm
14:30 -3.4 °C -11.5 °C 34256.2 hPa West 9.3 km/h 9.3 km/h 40 % 0 mm
14:35 -3.6 °C -11.9 °C 34256.2 hPa WSW 16.6 km/h 16.6 km/h 39 % 0 mm
14:40 -3.5 °C -11.8 °C 34256.2 hPa NNE 9 km/h 9 km/h 39 % 0 mm
14:45 -3.6 °C -12.1 °C 34256.2 hPa SW 15 km/h 15 km/h 38 % 0 mm
14:50 -3.3 °C -11.7 °C 34256.2 hPa West 14.5 km/h 14.5 km/h 39 % 0 mm
14:55 -3.4 °C -12 °C 34256.2 hPa SW 15 km/h 15 km/h 38 % 0 mm
15:01 -3.4 °C -12 °C 34256.2 hPa WNW 9 km/h 9 km/h 38 % 0 mm
15:06 -3.4 °C -11.9 °C 34256.2 hPa ESE 15 km/h 15 km/h 38 % 0 mm
15:11 -3.4 °C -12.2 °C 34256.2 hPa WSW 11.9 km/h 11.9 km/h 37 % 0 mm
15:21 -3.7 °C -12.7 °C 34256.2 hPa WSW 6 km/h 6 km/h 36 % 0 mm
15:26 -3.8 °C -12.7 °C 34256.2 hPa WNW 9 km/h 9 km/h 36 % 0 mm
15:31 -3.8 °C -12.7 °C 34256.2 hPa North 8 km/h 8 km/h 36 % 0 mm
15:36 -3.9 °C -12.6 °C 34256.2 hPa ENE 12.2 km/h 12.2 km/h 37 % 0 mm
15:41 -4.1 °C -12.4 °C 34256.2 hPa NNW 9 km/h 9 km/h 39 % 0 mm
15:46 -4.1 °C -12.8 °C 34256.2 hPa SW 15 km/h 15 km/h 37 % 0 mm
15:51 -4.1 °C -13 °C 34256.2 hPa WSW 15 km/h 15 km/h 36 % 0 mm
15:56 -3.8 °C -12.9 °C 34256.2 hPa WSW 8.5 km/h 10.3 km/h 35 % 0 mm
16:01 -3.7 °C -12.9 °C 34256.2 hPa WNW 15 km/h 15 km/h 35 % 0 mm
16:06 -3.6 °C -12.6 °C 34256.2 hPa WSW 9.8 km/h 9.8 km/h 36 % 0 mm
16:11 -3.5 °C -12.7 °C 34256.2 hPa NW 15 km/h 15 km/h 35 % 0 mm
16:16 -3.2 °C -12.2 °C 34256.2 hPa West 15 km/h 15 km/h 36 % 0 mm
16:26 -2.9 °C -12.3 °C 34256.2 hPa ESE 15 km/h 15 km/h 35 % 0 mm
16:31 -3.3 °C -12.3 °C 34256.2 hPa NNE 15 km/h 15 km/h 36 % 0 mm
16:36 -3.9 °C -12.6 °C 34256.2 hPa East 17.9 km/h 17.9 km/h 37 % 0 mm
16:41 -4.2 °C -12.4 °C 34256.2 hPa SE 9 km/h 9 km/h 39 % 0 mm
16:46 -4.4 °C -12.4 °C 34256.2 hPa ESE 17.9 km/h 17.9 km/h 40 % 0 mm
16:51 -4.7 °C -12.7 °C 34256.2 hPa ESE 32.8 km/h 32.8 km/h 40 % 0 mm
16:56 -4.9 °C -12.7 °C 34256.2 hPa East 23.8 km/h 23.8 km/h 41 % 0 mm
17:01 -5.1 °C -12.7 °C 34256.2 hPa ESE 20.9 km/h 20.9 km/h 42 % 0 mm
17:06 -5.2 °C -12.6 °C 34256.2 hPa East 23.8 km/h 23.8 km/h 43 % 0 mm
17:11 -5.4 °C -12.8 °C 34256.2 hPa ESE 17.9 km/h 17.9 km/h 43 % 0 mm
17:16 -5.7 °C -12.8 °C 34256.2 hPa East 26.9 km/h 26.9 km/h 44 % 0 mm
17:21 -6.1 °C -13 °C 34256.2 hPa NNE 35.7 km/h 35.7 km/h 45 % 0 mm
17:26 -6.3 °C -12.8 °C 34256.2 hPa East 20.9 km/h 20.9 km/h 47 % 0 mm
17:36 -6.7 °C -12.8 °C 34256.2 hPa NE 26.9 km/h 26.9 km/h 49 % 0 mm
17:41 -6.7 °C -12.7 °C 34327.3 hPa ENE 26.9 km/h 26.9 km/h 50 % 0 mm
17:46 -6.9 °C -12.7 °C 34327.3 hPa NNE 23.8 km/h 23.8 km/h 51 % 0 mm
17:51 -7.3 °C -12.6 °C 34327.3 hPa NNE 20.9 km/h 20.9 km/h 54 % 0 mm
17:56 -7.6 °C -12.6 °C 34327.3 hPa NE 17.9 km/h 17.9 km/h 56 % 0 mm
18:01 -7.7 °C -12.4 °C 34327.3 hPa ENE 15 km/h 15 km/h 58 % 0 mm
18:06 -7.8 °C -12.3 °C 34361.1 hPa ESE 17.9 km/h 17.9 km/h 59 % 0 mm
18:11 -7.9 °C -12.3 °C 34361.1 hPa ENE 17.9 km/h 17.9 km/h 60 % 0 mm
18:16 -8 °C -12.2 °C 34361.1 hPa East 22.5 km/h 22.5 km/h 61 % 0 mm
18:21 -8.1 °C -12.2 °C 34361.1 hPa ESE 23.8 km/h 23.8 km/h 62 % 0 mm
18:26 -8.2 °C -12 °C 34327.3 hPa ESE 17.9 km/h 17.9 km/h 64 % 0 mm
18:31 -8.2 °C -11.9 °C 34327.3 hPa SSE 20.9 km/h 20.9 km/h 65 % 0 mm
18:36 -8.3 °C -11.8 °C 34327.3 hPa North 11.1 km/h 11.1 km/h 66 % 0 mm
18:42 -8.3 °C -11.9 °C 34327.3 hPa SE 20.9 km/h 20.9 km/h 66 % 0 mm
18:47 -8.3 °C -11.8 °C 34327.3 hPa ESE 9 km/h 9 km/h 66 % 0 mm
18:52 -8.3 °C -11.8 °C 34327.3 hPa NE 11.9 km/h 11.9 km/h 66 % 0 mm
18:57 -8.2 °C -11.7 °C 34327.3 hPa ENE 11.9 km/h 11.9 km/h 66 % 0 mm
19:02 -8.3 °C -11.4 °C 34327.3 hPa NNE 23.8 km/h 23.8 km/h 69 % 0 mm
19:07 -8.3 °C -11.6 °C 34327.3 hPa NE 17.9 km/h 17.9 km/h 68 % 0 mm
19:12 -8.3 °C -11.6 °C 34327.3 hPa NE 20.9 km/h 20.9 km/h 68 % 0 mm
19:17 -8.3 °C -11.6 °C 34327.3 hPa NNE 17.9 km/h 17.9 km/h 68 % 0 mm
19:22 -8.3 °C -11.6 °C 34327.3 hPa NNE 17.9 km/h 17.9 km/h 68 % 0 mm
19:28 -8.3 °C -11.6 °C 34327.3 hPa ENE 15 km/h 15 km/h 68 % 0 mm
19:33 -8.2 °C -11.6 °C 34327.3 hPa NE 16.1 km/h 16.1 km/h 67 % 0 mm
19:43 -8.2 °C -11.6 °C 34327.3 hPa NNE 11.9 km/h 11.9 km/h 67 % 0 mm
19:48 -8.2 °C -11.7 °C 34327.3 hPa NNE 16.6 km/h 16.6 km/h 67 % 0 mm
19:53 -8.3 °C -11.7 °C 34361.1 hPa ENE 14 km/h 14 km/h 67 % 0 mm
19:58 -8.3 °C -11.9 °C 34361.1 hPa ENE 9 km/h 9 km/h 66 % 0 mm
20:03 -8.3 °C -11.9 °C 34361.1 hPa ESE 17.9 km/h 17.9 km/h 66 % 0 mm
20:08 -8.3 °C -11.9 °C 34361.1 hPa NNE 9 km/h 9 km/h 66 % 0 mm
20:13 -8.4 °C -11.8 °C 34361.1 hPa East 12.2 km/h 12.2 km/h 67 % 0 mm
20:18 -8.4 °C -11.8 °C 34361.1 hPa NNE 5.1 km/h 5.1 km/h 67 % 0 mm
20:23 -8.4 °C -11.8 °C 34361.1 hPa ENE 6 km/h 6 km/h 67 % 0 mm
20:28 -8.4 °C -11.8 °C 34361.1 hPa ESE 9 km/h 9 km/h 67 % 0 mm
20:33 -8.4 °C -11.9 °C 34361.1 hPa ENE 11.9 km/h 11.9 km/h 67 % 0 mm
20:38 -8.5 °C -11.8 °C 34361.1 hPa ENE 9 km/h 9 km/h 68 % 0 mm
20:43 -8.6 °C -11.8 °C 34361.1 hPa East 11.9 km/h 11.9 km/h 68 % 0 mm
20:48 -8.6 °C -11.9 °C 34361.1 hPa NE 6 km/h 6 km/h 68 % 0 mm
20:53 -8.7 °C -11.8 °C 34361.1 hPa NNE 11.9 km/h 11.9 km/h 69 % 0 mm
20:58 -8.7 °C -11.8 °C 34361.1 hPa ENE 11.9 km/h 11.9 km/h 69 % 0 mm
21:03 -8.7 °C -11.9 °C 34361.1 hPa ENE 14 km/h 14 km/h 69 % 0 mm
21:08 -8.7 °C -11.9 °C 34361.1 hPa ENE 15 km/h 15 km/h 69 % 0 mm
21:13 -8.8 °C -11.9 °C 34361.1 hPa NE 15 km/h 15 km/h 69 % 0 mm
21:18 -8.8 °C -11.9 °C 34361.1 hPa ENE 15 km/h 15 km/h 69 % 0 mm
21:23 -8.8 °C -12 °C 34395 hPa NNE 15 km/h 15 km/h 69 % 0 mm
21:28 -8.8 °C -12.1 °C 34395 hPa NNE 15 km/h 15 km/h 68 % 0 mm
21:33 -8.8 °C -12.1 °C 34395 hPa NNE 15 km/h 15 km/h 68 % 0 mm
21:38 -8.8 °C -12.1 °C 34395 hPa ENE 6 km/h 6.3 km/h 68 % 0 mm
21:43 -8.9 °C -12.2 °C 34395 hPa ENE 9 km/h 9 km/h 68 % 0 mm
21:53 -8.9 °C -12.1 °C 34428.8 hPa ESE 9.8 km/h 9.8 km/h 69 % 0 mm
22:03 -8.9 °C -12.1 °C 34428.8 hPa East 6.3 km/h 6.3 km/h 69 % 0 mm
22:08 -8.9 °C -12.1 °C 34361.1 hPa ENE 6.3 km/h 6.3 km/h 69 % 0 mm
22:13 -9 °C -12.2 °C 34361.1 hPa NE 6 km/h 6 km/h 69 % 0 mm
22:18 -9.1 °C -12.2 °C 34361.1 hPa SE 6 km/h 6 km/h 69 % 0 mm
22:23 -9.1 °C -12.3 °C 34361.1 hPa East 11.9 km/h 11.9 km/h 69 % 0 mm
22:28 -9.1 °C -12.3 °C 34361.1 hPa ENE 9 km/h 9 km/h 69 % 0 mm
22:33 -9.2 °C -12.3 °C 34361.1 hPa ENE 3.1 km/h 3.1 km/h 69 % 0 mm
22:38 -9.2 °C -12.2 °C 34395 hPa East 6 km/h 6 km/h 70 % 0 mm
22:43 -9.2 °C -12.3 °C 34395 hPa East 3.7 km/h 3.7 km/h 70 % 0 mm
22:48 -9.2 °C -12.3 °C 34395 hPa NE 3.1 km/h   70 % 0 mm
22:58 -9.3 °C -12.3 °C 34395 hPa NW 3.7 km/h 3.7 km/h 70 % 0 mm
23:03 -9.3 °C -12.2 °C 34395 hPa NNW 3.1 km/h   71 % 0 mm
23:08 -9.4 °C -12.3 °C 34428.8 hPa NE 6 km/h   71 % 0 mm
23:13 -9.4 °C -12.4 °C 34428.8 hPa NW 6 km/h   70 % 0 mm
23:18 -9.4 °C -12.2 °C 34428.8 hPa Calm     72 % 0 mm
23:23 -9.4 °C -12.3 °C 34395 hPa Calm     71 % 0 mm
23:28 -9.5 °C -12.3 °C 34395 hPa ENE 6.3 km/h 6.3 km/h 72 % 0 mm
23:33 -9.4 °C -12.2 °C 34395 hPa NE 3.1 km/h 3.1 km/h 72 % 0 mm
23:38 -9.5 °C -12.3 °C 34428.8 hPa Calm     72 % 0 mm
23:43 -9.5 °C -12.3 °C 34428.8 hPa Calm     72 % 0 mm
23:48 -9.5 °C -12.3 °C 34428.8 hPa Calm     72 % 0 mm
23:58 -9.6 °C -12.3 °C 34428.8 hPa West 4.2 km/h   72 % 0 mm
Meteo Sesrovires
Elogis d' Weather Underground - 2 mb

Guio original per  Jim McMurry - jmcmurry@mwt.net Adaptat per a la plantilla per  Wim van der Kuil - Leuven-Template.eu

Trobareu la nostra informacio del temps tambe a:

Weather Underground

AWEKAS